Time;durP1;ratioP1;P1;durP2;ratioP2;P2;SDS_P1;SDS_P2;PMS_P1;PMS_P2;Temp;Humidity;BMP_temperature;BMP_pressure;BME280_temperature;BME280_humidity;BME280_pressure;Samples;Min_cycle;Max_cycle;Signal;HPM_P1;HPM_P2
2022/07/02 00:00:26;;;;;;;2.03;1.13;;;13.40;99.90;;;;;;20754985;28;20026;-75
2022/07/02 00:10:27;;;;;;;0.93;0.80;;;13.30;99.90;;;;;;20753600;28;20472;-75
2022/07/02 00:20:28;;;;;;;1.13;0.77;;;13.20;99.90;;;;;;20753220;28;20034;-75
2022/07/02 00:30:29;;;;;;;0.87;0.87;;;13.10;99.90;;;;;;20753606;28;20494;-75
2022/07/02 00:40:31;;;;;;;1.60;1.00;;;13.10;99.90;;;;;;20760185;28;20399;-76
2022/07/02 00:50:32;;;;;;;5.80;1.20;;;13.00;99.90;;;;;;20750792;28;20041;-76
2022/07/02 01:00:33;;;;;;;4.37;0.90;;;13.00;99.90;;;;;;20744245;28;20030;-75
2022/07/02 01:10:42;;;;;;;2.47;0.90;;;12.90;99.90;;;;;;20727972;28;20302;-75
2022/07/02 01:20:43;;;;;;;1.45;1.00;;;12.70;99.90;;;;;;20691518;28;20525;-75
2022/07/02 01:30:44;;;;;;;3.75;1.08;;;12.60;99.90;;;;;;20760378;28;20556;-74
2022/07/02 01:40:45;;;;;;;3.75;1.40;;;12.50;99.90;;;;;;20651359;28;20553;-75
2022/07/02 01:50:46;;;;;;;3.40;1.00;;;12.50;99.90;;;;;;20735485;28;20029;-75
2022/07/02 02:00:47;;;;;;;2.10;1.10;;;12.50;99.90;;;;;;20758450;28;20034;-75
2022/07/02 02:10:48;;;;;;;3.37;2.03;;;12.20;99.90;;;;;;20743591;28;20406;-75
2022/07/02 02:20:48;;;;;;;1.67;1.17;;;12.20;99.90;;;;;;20745506;28;20437;-76
2022/07/02 02:30:49;;;;;;;3.13;1.27;;;12.20;99.90;;;;;;20743708;28;20065;-75
2022/07/02 02:40:50;;;;;;;2.00;1.10;;;12.10;99.90;;;;;;20743048;28;20076;-75
2022/07/02 02:50:51;;;;;;;3.10;1.20;;;12.00;99.90;;;;;;20742956;28;20022;-75
2022/07/02 03:00:52;;;;;;;1.20;1.10;;;12.20;99.90;;;;;;20742757;28;20029;-76
2022/07/02 03:10:53;;;;;;;1.03;0.93;;;12.20;99.90;;;;;;20742271;28;20041;-76
2022/07/02 03:20:54;;;;;;;3.97;1.40;;;12.20;99.90;;;;;;20754572;28;20026;-76
2022/07/02 03:30:55;;;;;;;0.90;0.80;;;12.20;99.90;;;;;;20756696;28;20033;-76
2022/07/02 03:40:55;;;;;;;3.17;1.67;;;12.00;99.90;;;;;;20755616;28;20030;-76
2022/07/02 03:50:56;;;;;;;2.37;1.20;;;12.00;99.90;;;;;;20755411;28;20025;-75
2022/07/02 04:00:57;;;;;;;1.43;1.10;;;11.90;99.90;;;;;;20755405;28;20099;-75
2022/07/02 04:10:58;;;;;;;1.50;1.00;;;11.90;99.90;;;;;;20754555;28;20116;-75
2022/07/02 04:20:59;;;;;;;2.07;1.10;;;11.90;99.90;;;;;;20753862;28;20029;-76
2022/07/02 04:31:00;;;;;;;1.63;1.40;;;12.00;99.90;;;;;;20752282;28;20112;-76
2022/07/02 04:41:00;;;;;;;1.87;1.37;;;12.20;99.90;;;;;;20750236;28;20026;-76
2022/07/02 04:51:01;;;;;;;1.40;1.10;;;12.40;99.90;;;;;;20750762;28;20076;-76
2022/07/02 05:01:02;;;;;;;2.17;1.40;;;12.50;99.90;;;;;;20748379;28;20530;-76
2022/07/02 05:11:03;;;;;;;4.77;1.00;;;12.90;99.90;;;;;;20749008;28;20133;-76
2022/07/02 05:21:05;;;;;;;2.30;1.50;;;13.20;99.90;;;;;;20748436;28;20080;-76
2022/07/02 05:31:05;;;;;;;6.05;2.53;;;13.60;99.90;;;;;;20747504;28;20038;-77
2022/07/02 05:41:07;;;;;;;5.30;2.40;;;14.00;99.90;;;;;;20746321;28;20537;-76
2022/07/02 05:51:08;;;;;;;6.82;2.83;;;14.20;99.90;;;;;;20745900;28;20041;-75
2022/07/02 06:01:08;;;;;;;6.83;2.47;;;14.60;99.90;;;;;;20749437;28;20022;-76
2022/07/02 06:11:11;;;;;;;3.90;2.00;;;15.10;99.90;;;;;;20745865;28;20120;-77
2022/07/02 06:21:11;;;;;;;4.00;2.00;;;15.50;99.90;;;;;;20744878;28;20045;-76
2022/07/02 06:31:12;;;;;;;3.43;1.80;;;15.80;99.90;;;;;;20742999;28;20554;-77
2022/07/02 06:51:34;;;;;;;3.30;1.60;;;16.80;99.90;;;;;;20722005;28;20534;-77
2022/07/02 07:01:35;;;;;;;1.83;1.50;;;16.70;99.90;;;;;;20756185;28;20096;-76
2022/07/02 07:11:36;;;;;;;1.95;1.23;;;17.80;99.90;;;;;;20761608;28;20160;-76
2022/07/02 07:21:39;;;;;;;2.27;0.90;;;18.20;99.90;;;;;;20797477;28;20057;-76
2022/07/02 07:31:41;;;;;;;1.02;0.60;;;18.40;99.90;;;;;;20789101;28;20038;-77
2022/07/02 07:41:42;;;;;;;1.77;0.60;;;18.50;99.90;;;;;;20837798;28;20101;-76
2022/07/02 07:51:43;;;;;;;1.33;0.73;;;18.90;99.90;;;;;;20837235;28;20029;-77
2022/07/02 08:01:44;;;;;;;0.83;0.70;;;19.50;99.90;;;;;;20842353;28;20026;-78
2022/07/02 08:11:45;;;;;;;1.63;0.60;;;20.10;99.90;;;;;;20844031;23;20040;-74
2022/07/02 08:21:46;;;;;;;3.80;0.93;;;20.30;99.90;;;;;;20762525;28;20033;-75
2022/07/02 08:31:46;;;;;;;2.03;0.80;;;21.30;99.90;;;;;;20834362;28;20060;-75
2022/07/02 08:41:48;;;;;;;3.77;0.80;;;21.50;99.90;;;;;;20833316;28;20112;-74
2022/07/02 08:52:06;;;;;;;3.55;0.40;;;21.70;99.90;;;;;;20832553;28;20042;-74
2022/07/02 09:02:10;;;;;;;0.57;0.43;;;22.10;99.90;;;;;;20831700;28;20505;-74
2022/07/02 09:12:13;;;;;;;0.95;0.63;;;22.80;99.90;;;;;;20830759;28;20120;-74
2022/07/02 09:22:14;;;;;;;4.32;0.70;;;23.40;99.90;;;;;;20829211;28;20033;-75
2022/07/02 09:32:16;;;;;;;0.98;0.43;;;24.10;99.90;;;;;;20829466;28;20443;-74
2022/07/02 09:42:25;;;;;;;0.93;0.50;;;24.30;99.90;;;;;;20828574;28;20037;-75
2022/07/02 09:52:26;;;;;;;0.82;0.50;;;24.50;99.90;;;;;;20827705;28;20064;-75
2022/07/02 10:02:28;;;;;;;0.60;0.40;;;24.90;99.90;;;;;;20826962;28;20079;-75
2022/07/02 10:12:29;;;;;;;0.20;0.20;;;25.70;99.90;;;;;;20826390;28;20029;-75
2022/07/02 10:22:31;;;;;;;3.20;0.40;;;26.10;99.90;;;;;;20825797;28;20033;-75
2022/07/02 10:32:57;;;;;;;0.40;0.20;;;25.90;99.90;;;;;;20825674;28;20120;-75
2022/07/02 10:42:59;;;;;;;1.13;0.35;;;26.50;99.90;;;;;;20869288;28;20036;-75
2022/07/02 10:53:22;;;;;;;0.63;0.43;;;26.40;99.90;;;;;;20887750;28;20036;-75
2022/07/02 11:03:24;;;;;;;0.70;0.30;;;26.80;99.90;;;;;;20772757;28;20409;-75
2022/07/02 11:13:40;;;;;;;0.82;0.32;;;27.00;99.90;;;;;;20850518;28;20044;-75
2022/07/02 11:23:41;;;;;;;0.88;0.30;;;27.10;99.90;;;;;;20847839;28;20046;-75
2022/07/02 11:33:55;;;;;;;1.17;0.38;;;27.00;99.90;;;;;;20805446;28;20033;-75
2022/07/02 11:44:00;;;;;;;0.80;0.30;;;27.00;99.90;;;;;;20849282;28;20066;-75
2022/07/02 11:54:03;;;;;;;1.27;0.40;;;27.90;99.90;;;;;;20852143;28;20146;-74
2022/07/02 12:04:06;;;;;;;0.93;0.30;;;28.40;99.90;;;;;;20831716;28;20022;-75
2022/07/02 12:14:09;;;;;;;2.42;0.40;;;28.00;99.90;;;;;;20815470;28;20037;-75
2022/07/02 12:24:25;;;;;;;1.00;0.38;;;27.40;99.90;;;;;;20835665;28;20060;-75
2022/07/02 12:34:42;;;;;;;0.68;0.28;;;28.30;99.90;;;;;;20851507;28;20037;-74
2022/07/02 12:45:04;;;;;;;0.50;0.30;;;28.50;99.90;;;;;;20878348;28;20056;-75
2022/07/02 12:55:05;;;;;;;0.43;0.30;;;27.60;99.90;;;;;;20859531;28;20031;-76
2022/07/02 13:05:09;;;;;;;0.30;0.25;;;28.90;99.90;;;;;;20850488;28;20037;-76
2022/07/02 13:15:10;;;;;;;0.40;0.30;;;28.80;99.90;;;;;;20853556;28;20122;-76
2022/07/02 13:25:12;;;;;;;0.55;0.30;;;28.20;99.90;;;;;;20851795;28;20113;-76
2022/07/02 13:35:14;;;;;;;1.02;0.38;;;28.90;99.90;;;;;;20809174;28;20476;-75
2022/07/02 13:45:15;;;;;;;0.88;0.43;;;28.30;99.90;;;;;;20808901;28;20029;-75
2022/07/02 13:55:16;;;;;;;1.42;0.25;;;29.00;99.90;;;;;;20807752;28;20064;-75
2022/07/02 14:05:17;;;;;;;1.50;0.43;;;28.50;99.90;;;;;;20806805;28;20033;-75
2022/07/02 14:15:18;;;;;;;0.32;0.30;;;29.30;99.90;;;;;;20840230;23;20324;-79
2022/07/02 14:25:20;;;;;;;3.35;0.60;;;29.20;99.90;;;;;;20818027;28;20037;-79
2022/07/02 14:35:21;;;;;;;1.25;0.32;;;29.20;99.90;;;;;;20769578;28;20534;-79
2022/07/02 14:45:23;;;;;;;2.95;0.40;;;30.00;99.90;;;;;;20766447;28;20111;-77
2022/07/02 14:55:24;;;;;;;2.30;0.95;;;29.80;99.90;;;;;;20814472;28;20029;-79
2022/07/02 15:05:25;;;;;;;4.10;1.90;;;27.70;99.90;;;;;;20778491;28;20025;-79
2022/07/02 15:25:48;;;;;;;1.55;0.50;;;29.20;99.90;;;;;;20809764;28;20053;-80
2022/07/02 15:35:50;;;;;;;0.75;0.50;;;28.90;99.90;;;;;;20804100;28;20034;-80
2022/07/02 15:45:52;;;;;;;0.63;0.30;;;28.90;99.90;;;;;;20782964;28;20136;-82
2022/07/02 15:56:01;;;;;;;0.93;0.43;;;28.80;99.90;;;;;;20833097;28;20064;-82
2022/07/02 16:06:02;;;;;;;0.30;0.30;;;28.30;99.90;;;;;;20813631;28;20033;-80
2022/07/02 16:16:03;;;;;;;4.10;0.68;;;28.20;99.90;;;;;;20824553;28;20065;-81
2022/07/02 16:26:04;;;;;;;0.68;0.40;;;27.70;99.90;;;;;;20788179;28;20038;-80
2022/07/02 16:36:05;;;;;;;1.75;0.50;;;27.80;99.90;;;;;;20842373;28;20033;-81
2022/07/02 16:46:09;;;;;;;0.60;0.40;;;27.60;99.90;;;;;;20842856;28;20057;-81
2022/07/02 16:56:10;;;;;;;0.50;0.40;;;27.30;99.90;;;;;;20841397;28;20121;-81
2022/07/02 17:06:11;;;;;;;1.13;0.50;;;27.20;99.90;;;;;;20839394;28;20033;-80
2022/07/02 17:16:12;;;;;;;1.52;0.73;;;27.20;99.90;;;;;;20839245;28;20085;-80
2022/07/02 17:26:14;;;;;;;0.50;0.40;;;27.30;99.90;;;;;;20845852;28;20037;-81
2022/07/02 17:36:15;;;;;;;1.10;0.38;;;27.00;99.90;;;;;;20842858;28;20029;-81
2022/07/02 17:46:16;;;;;;;0.82;0.50;;;26.70;99.90;;;;;;20847535;28;20139;-82
2022/07/02 17:56:17;;;;;;;0.43;0.40;;;26.70;99.90;;;;;;20840961;28;20489;-81
2022/07/02 18:06:18;;;;;;;1.52;0.63;;;26.80;99.90;;;;;;20839629;28;20064;-81
2022/07/02 18:16:19;;;;;;;0.68;0.47;;;27.40;99.90;;;;;;20835919;28;20034;-81
2022/07/02 18:26:20;;;;;;;0.53;0.50;;;28.30;99.90;;;;;;20838353;28;20030;-81
2022/07/02 18:36:20;;;;;;;5.05;0.50;;;29.40;99.90;;;;;;20860274;28;20284;-80
2022/07/02 18:46:21;;;;;;;0.50;0.50;;;28.20;99.90;;;;;;20863395;28;20034;-79
2022/07/02 18:56:25;;;;;;;1.35;0.60;;;25.50;99.90;;;;;;20832586;28;20030;-80
2022/07/02 19:06:26;;;;;;;4.10;0.57;;;23.90;99.90;;;;;;20800823;28;20064;-79
2022/07/02 19:16:26;;;;;;;0.87;0.70;;;23.00;99.90;;;;;;20809789;28;20475;-80
2022/07/02 19:36:46;;;;;;;0.80;0.52;;;22.30;99.90;;;;;;20781329;28;20113;-78
2022/07/02 19:46:47;;;;;;;5.97;0.80;;;21.00;99.90;;;;;;20770533;28;20037;-78
2022/07/02 19:56:48;;;;;;;1.60;1.00;;;21.40;99.90;;;;;;20772938;28;20058;-77
2022/07/02 20:06:49;;;;;;;1.00;0.90;;;20.30;99.90;;;;;;20792826;28;20029;-80
2022/07/02 20:16:50;;;;;;;1.00;0.90;;;19.60;99.90;;;;;;20776051;22;20050;-76
2022/07/02 20:26:51;;;;;;;1.40;0.90;;;19.30;99.90;;;;;;20753026;28;20036;-76
2022/07/02 20:36:51;;;;;;;3.33;0.97;;;19.10;99.90;;;;;;20750913;28;20469;-76
2022/07/02 20:46:52;;;;;;;1.00;0.70;;;18.50;99.90;;;;;;20751555;28;20482;-76
2022/07/02 20:56:54;;;;;;;4.73;1.20;;;18.90;99.90;;;;;;20742000;28;20401;-76
2022/07/02 21:06:54;;;;;;;4.60;0.93;;;18.70;99.90;;;;;;20747990;28;20072;-76
2022/07/02 21:16:55;;;;;;;1.83;1.30;;;18.00;99.90;;;;;;20743350;28;20037;-76
2022/07/02 21:26:56;;;;;;;2.03;1.30;;;18.30;99.90;;;;;;20717204;28;20619;-75
2022/07/02 21:36:57;;;;;;;3.10;1.30;;;18.60;99.90;;;;;;20707829;28;20525;-76
2022/07/02 21:46:58;;;;;;;1.53;1.20;;;18.10;99.90;;;;;;20652392;28;20025;-76
2022/07/02 21:56:59;;;;;;;4.80;1.80;;;17.60;99.90;;;;;;20717113;28;20486;-76
2022/07/02 22:06:59;;;;;;;3.47;0.97;;;17.50;99.90;;;;;;20645219;28;20041;-75
2022/07/02 22:17:00;;;;;;;3.03;1.30;;;17.30;99.90;;;;;;20685514;28;20042;-76
2022/07/02 22:27:01;;;;;;;8.20;2.60;;;17.20;99.90;;;;;;20724691;28;20048;-76
2022/07/02 22:37:03;;;;;;;2.33;1.20;;;17.00;99.90;;;;;;20725085;28;20118;-77
2022/07/02 22:47:04;;;;;;;1.63;1.23;;;16.90;99.90;;;;;;20710131;28;20082;-76
2022/07/02 22:57:05;;;;;;;4.67;1.70;;;16.70;99.90;;;;;;20703180;28;20474;-76
2022/07/02 23:07:06;;;;;;;3.60;1.80;;;16.50;99.90;;;;;;20700885;28;20037;-76
2022/07/02 23:17:07;;;;;;;;;;;16.50;99.90;;;;;;20700679;28;20025;-76
2022/07/02 23:27:08;;;;;;;3.40;1.70;;;16.50;99.90;;;;;;20700306;28;20000;-76
2022/07/02 23:37:09;;;;;;;4.40;1.87;;;16.40;99.90;;;;;;20702173;28;20030;-77
2022/07/02 23:47:11;;;;;;;3.73;1.70;;;16.50;99.90;;;;;;20714536;28;20036;-76
2022/07/02 23:57:12;;;;;;;5.07;1.58;;;16.20;99.90;;;;;;20694555;28;20035;-75
